Time;durP1;ratioP1;P1;durP2;ratioP2;P2;SDS_P1;SDS_P2;PMS_P1;PMS_P2;Temp;Humidity;BMP_temperature;BMP_pressure;BME280_temperature;BME280_humidity;BME280_pressure;Samples;Min_cycle;Max_cycle;Signal;HPM_P1;HPM_P2
2023/05/05 00:00:59;;;;;;;;;;;;;;;;;;5155238;27;1425;-39
2023/05/05 00:03:28;;;;;;;;;;;;;;;;;;5155273;27;2097;-39
2023/05/05 00:05:56;;;;;;;;;;;;;;;;;;5155786;27;1835;-40
2023/05/05 00:08:23;;;;;;;;;;;;;;;;;;5155204;27;2099;-39
2023/05/05 00:10:51;;;;;;;;;;;;;;;;;;5155940;27;2054;-51
2023/05/05 00:13:20;;;;;;;;;;;;;;;;;;5155558;27;2010;-42
2023/05/05 00:15:48;;;;;;;;;;;;;;;;;;5155684;27;2076;-40
2023/05/05 00:18:16;;;;;;;;;;;;;;;;;;5155431;27;1817;-40
2023/05/05 00:20:45;;;;;;;;;;;;;;;;;;5155430;27;2036;-49
2023/05/05 00:23:13;;;;;;;;;;;;;;;;;;5155525;27;1911;-42
2023/05/05 00:25:40;;;;;;;;;;;;;;;;;;5155201;27;2170;-41
2023/05/05 00:28:07;;;;;;;;;;;;;;;;;;5154976;27;2172;-41
2023/05/05 00:30:35;;;;;;;;;;;;;;;;;;5155281;27;2229;-44
2023/05/05 00:33:02;;;;;;;;;;;;;;;;;;5155253;27;1984;-40
2023/05/05 00:35:29;;;;;;;;;;;;;;;;;;5154944;27;1752;-40
2023/05/05 00:37:57;;;;;;;;;;;;;;;;;;5155102;27;1841;-41
2023/05/05 00:40:24;;;;;;;;;;;;;;;;;;5155063;27;2020;-40
2023/05/05 00:42:52;;;;;;;;;;;;;;;;;;5155392;27;1985;-49
2023/05/05 00:45:22;;;;;;;;;;;;;;;;;;5155259;27;1806;-40
2023/05/05 00:47:51;;;;;;;;;;;;;;;;;;5154729;27;2562;-46
2023/05/05 00:50:21;;;;;;;;;;;;;;;;;;5154890;27;1950;-39
2023/05/05 00:52:49;;;;;;;;;;;;;;;;;;5154463;27;1941;-42
2023/05/05 00:55:17;;;;;;;;;;;;;;;;;;5156223;27;2250;-40
2023/05/05 00:57:44;;;;;;;;;;;;;;;;;;5157321;27;1758;-42
2023/05/05 01:00:12;;;;;;;;;;;;;;;;;;5175509;27;2131;-39
2023/05/05 01:02:40;;;;;;;;;;;;;;;;;;5156473;27;1990;-39
2023/05/05 01:05:08;;;;;;;;;;;;;;;;;;5175415;27;1824;-39
2023/05/05 01:07:53;;;;;;;;;;;;;;;;;;5175237;27;2053;-39
2023/05/05 01:10:34;;;;;;;;;;;;;;;;;;5156981;27;1457;-39
2023/05/05 01:13:17;;;;;;;;;;;;;;;;;;5156609;27;2021;-39
2023/05/05 01:15:47;;;;;;;;;;;;;;;;;;5175073;27;2021;-39
2023/05/05 01:18:14;;;;;;;;;;;;;;;;;;5156336;27;2351;-39
2023/05/05 01:21:00;;;;;;;;;;;;;;;;;;5175077;27;2117;-39
2023/05/05 01:23:46;;;;;;;;;;;;;;;;;;5156483;27;2005;-39
2023/05/05 01:26:13;;;;;;;;;;;;;;;;;;5174997;27;2062;-41
2023/05/05 01:28:59;;;;;;;;;;;;;;;;;;5174865;27;1838;-39
2023/05/05 01:32:02;;;;;;;;;;;;;;;;;;5156397;27;2003;-39
2023/05/05 01:34:39;;;;;;;;;;;;;;;;;;5069751;28;2015;-41
2023/05/05 01:37:10;;;;;;;;;;;;;;;;;;5143297;27;2141;-40
2023/05/05 01:39:39;;;;;;;;;;;;;;;;;;5174698;27;1960;-39
2023/05/05 01:42:09;;;;;;;;;;;;;;;;;;5174502;27;2094;-40
2023/05/05 01:44:36;;;;;;;;;;;;;;;;;;5174368;27;1991;-39
2023/05/05 01:47:05;;;;;;;;;;;;;;;;;;5174293;27;2006;-40
2023/05/05 01:49:32;;;;;;;;;;;;;;;;;;5150205;27;2204;-40
2023/05/05 01:52:00;;;;;;;;;;;;;;;;;;5153519;27;2041;-42
2023/05/05 01:54:27;;;;;;;;;;;;;;;;;;5131626;27;1849;-39
2023/05/05 01:56:56;;;;;;;;;;;;;;;;;;5133116;27;1838;-38
2023/05/05 01:59:24;;;;;;;;;;;;;;;;;;5131514;27;1848;-39
2023/05/05 02:01:51;;;;;;;;;;;;;;;;;;5132536;27;1917;-39
2023/05/05 02:04:21;;;;;;;;;;;;;;;;;;5132775;27;2036;-39
2023/05/05 02:06:51;;;;;;;;;;;;;;;;;;5112002;28;1807;-40
2023/05/05 02:09:20;;;;;;;;;;;;;;;;;;5111883;28;2057;-39
2023/05/05 02:11:47;;;;;;;;;;;;;;;;;;5111959;28;1851;-39
2023/05/05 02:14:17;;;;;;;;;;;;;;;;;;5111744;28;2120;-43
2023/05/05 02:16:44;;;;;;;;;;;;;;;;;;5117556;27;2078;-40
2023/05/05 02:19:13;;;;;;;;;;;;;;;;;;5132112;27;1957;-44
2023/05/05 02:21:41;;;;;;;;;;;;;;;;;;5131007;27;1985;-47
2023/05/05 02:24:10;;;;;;;;;;;;;;;;;;5132147;27;1942;-44
2023/05/05 02:26:38;;;;;;;;;;;;;;;;;;5131059;27;1930;-41
2023/05/05 02:29:08;;;;;;;;;;;;;;;;;;5132152;27;1999;-43
2023/05/05 02:31:42;;;;;;;;;;;;;;;;;;5130982;27;2041;-47
2023/05/05 02:34:12;;;;;;;;;;;;;;;;;;5132311;27;2011;-48
2023/05/05 02:36:40;;;;;;;;;;;;;;;;;;5132282;27;1947;-41
2023/05/05 02:39:19;;;;;;;;;;;;;;;;;;5131899;27;2007;-40
2023/05/05 02:41:48;;;;;;;;;;;;;;;;;;5130887;27;1974;-49
2023/05/05 02:44:23;;;;;;;;;;;;;;;;;;5130489;27;2165;-46
2023/05/05 02:46:52;;;;;;;;;;;;;;;;;;5132292;27;1900;-43
2023/05/05 02:49:20;;;;;;;;;;;;;;;;;;5134545;27;1878;-49
2023/05/05 02:51:56;;;;;;;;;;;;;;;;;;5135281;27;2033;-51
2023/05/05 02:54:27;;;;;;;;;;;;;;;;;;5148128;27;2377;-41
2023/05/05 02:56:56;;;;;;;;;;;;;;;;;;5155733;27;2043;-50
2023/05/05 02:59:30;;;;;;;;;;;;;;;;;;5155673;27;1873;-46
2023/05/05 03:02:03;;;;;;;;;;;;;;;;;;5155349;27;2046;-49
2023/05/05 03:04:40;;;;;;;;;;;;;;;;;;5155703;27;2077;-47
2023/05/05 03:07:10;;;;;;;;;;;;;;;;;;5155523;27;2104;-47
2023/05/05 03:09:42;;;;;;;;;;;;;;;;;;5155469;27;1958;-41
2023/05/05 03:12:11;;;;;;;;;;;;;;;;;;5156626;27;2067;-39
2023/05/05 03:14:53;;;;;;;;;;;;;;;;;;5155090;27;2000;-39
2023/05/05 03:17:21;;;;;;;;;;;;;;;;;;5155134;27;2182;-46
2023/05/05 03:19:49;;;;;;;;;;;;;;;;;;5156686;27;1716;-39
2023/05/05 03:22:18;;;;;;;;;;;;;;;;;;5155222;27;2036;-39
2023/05/05 03:24:50;;;;;;;;;;;;;;;;;;5154861;27;2014;-45
2023/05/05 03:27:21;;;;;;;;;;;;;;;;;;5116585;27;2096;-45
2023/05/05 03:29:50;;;;;;;;;;;;;;;;;;5113789;28;1809;-42
2023/05/05 03:32:17;;;;;;;;;;;;;;;;;;5115175;28;1949;-48
2023/05/05 03:34:44;;;;;;;;;;;;;;;;;;5115108;28;2110;-46
2023/05/05 03:37:11;;;;;;;;;;;;;;;;;;5114874;28;1795;-43
2023/05/05 03:39:40;;;;;;;;;;;;;;;;;;5113467;28;1897;-43
2023/05/05 03:42:09;;;;;;;;;;;;;;;;;;5113624;28;2191;-45
2023/05/05 03:44:37;;;;;;;;;;;;;;;;;;5113454;28;2055;-40
2023/05/05 03:47:04;;;;;;;;;;;;;;;;;;5113738;28;2102;-39
2023/05/05 03:49:36;;;;;;;;;;;;;;;;;;5127655;27;2030;-38
2023/05/05 03:52:04;;;;;;;;;;;;;;;;;;5135333;27;2029;-43
2023/05/05 03:54:32;;;;;;;;;;;;;;;;;;5151314;27;2117;-39
2023/05/05 03:57:01;;;;;;;;;;;;;;;;;;5176750;27;1976;-40
2023/05/05 03:59:28;;;;;;;;;;;;;;;;;;5176401;27;2004;-40
2023/05/05 04:01:56;;;;;;;;;;;;;;;;;;5157639;27;1760;-39
2023/05/05 04:04:24;;;;;;;;;;;;;;;;;;5157675;27;1977;-40
2023/05/05 04:06:52;;;;;;;;;;;;;;;;;;5157709;27;1852;-52
2023/05/05 04:09:19;;;;;;;;;;;;;;;;;;5176569;27;2049;-39
2023/05/05 04:11:47;;;;;;;;;;;;;;;;;;5157687;27;2048;-40
2023/05/05 04:14:14;;;;;;;;;;;;;;;;;;5157527;27;1980;-40
2023/05/05 04:16:41;;;;;;;;;;;;;;;;;;5157692;27;1723;-40
2023/05/05 04:19:08;;;;;;;;;;;;;;;;;;5176184;27;2027;-39
2023/05/05 04:21:36;;;;;;;;;;;;;;;;;;5157654;27;1840;-38
2023/05/05 04:24:03;;;;;;;;;;;;;;;;;;5175991;27;1960;-50
2023/05/05 04:26:31;;;;;;;;;;;;;;;;;;5176172;27;1866;-40
2023/05/05 04:28:58;;;;;;;;;;;;;;;;;;5157089;27;2046;-39
2023/05/05 04:31:26;;;;;;;;;;;;;;;;;;5157082;27;2128;-40
2023/05/05 04:33:54;;;;;;;;;;;;;;;;;;5175813;27;1860;-40
2023/05/05 04:36:21;;;;;;;;;;;;;;;;;;5148946;27;2211;-49
2023/05/05 04:38:48;;;;;;;;;;;;;;;;;;5155144;27;1716;-40
2023/05/05 04:41:16;;;;;;;;;;;;;;;;;;5136361;27;2174;-39
2023/05/05 04:43:44;;;;;;;;;;;;;;;;;;5136048;27;2034;-39
2023/05/05 04:46:13;;;;;;;;;;;;;;;;;;5136081;27;1726;-39
2023/05/05 04:48:41;;;;;;;;;;;;;;;;;;5154962;27;2075;-38
2023/05/05 04:51:08;;;;;;;;;;;;;;;;;;5155218;27;2015;-39
2023/05/05 04:53:38;;;;;;;;;;;;;;;;;;5160633;27;1341;-47
2023/05/05 04:56:06;;;;;;;;;;;;;;;;;;5156848;27;2099;-39
2023/05/05 04:58:33;;;;;;;;;;;;;;;;;;5157090;27;1880;-50
2023/05/05 05:01:00;;;;;;;;;;;;;;;;;;5156468;27;2139;-39
2023/05/05 05:03:27;;;;;;;;;;;;;;;;;;5156530;27;1948;-39
2023/05/05 05:05:55;;;;;;;;;;;;;;;;;;5175109;27;1793;-40
2023/05/05 05:08:23;;;;;;;;;;;;;;;;;;5175232;27;1967;-49
2023/05/05 05:10:51;;;;;;;;;;;;;;;;;;5155627;27;1947;-40
2023/05/05 05:13:18;;;;;;;;;;;;;;;;;;5156165;27;1918;-39
2023/05/05 05:15:45;;;;;;;;;;;;;;;;;;5174973;27;2011;-38
2023/05/05 05:18:13;;;;;;;;;;;;;;;;;;5175346;27;1084;-39
2023/05/05 05:20:40;;;;;;;;;;;;;;;;;;5156296;27;1856;-39
2023/05/05 05:23:08;;;;;;;;;;;;;;;;;;5174996;27;2076;-42
2023/05/05 05:25:42;;;;;;;;;;;;;;;;;;5156320;27;2076;-40
2023/05/05 05:28:10;;;;;;;;;;;;;;;;;;5156051;27;1930;-40
2023/05/05 05:30:43;;;;;;;;;;;;;;;;;;5155964;27;1983;-39
2023/05/05 05:33:11;;;;;;;;;;;;;;;;;;5174927;27;2005;-41
2023/05/05 05:35:39;;;;;;;;;;;;;;;;;;5156254;27;2029;-39
2023/05/05 05:38:08;;;;;;;;;;;;;;;;;;5174385;27;2089;-41
2023/05/05 05:40:35;;;;;;;;;;;;;;;;;;5174558;27;1979;-39
2023/05/05 05:43:03;;;;;;;;;;;;;;;;;;5174603;27;2078;-39
2023/05/05 05:45:31;;;;;;;;;;;;;;;;;;5155432;27;1960;-44
2023/05/05 05:47:58;;;;;;;;;;;;;;;;;;5155701;27;2035;-51
2023/05/05 05:50:27;;;;;;;;;;;;;;;;;;5155518;27;1788;-40
2023/05/05 05:52:56;;;;;;;;;;;;;;;;;;5154701;27;2139;-40
2023/05/05 05:55:26;;;;;;;;;;;;;;;;;;5134892;27;2014;-39
2023/05/05 05:57:53;;;;;;;;;;;;;;;;;;5134835;27;2098;-38
2023/05/05 06:00:20;;;;;;;;;;;;;;;;;;5153224;27;2119;-39
2023/05/05 06:02:54;;;;;;;;;;;;;;;;;;5134603;27;2254;-40
2023/05/05 06:05:26;;;;;;;;;;;;;;;;;;5134468;27;2427;-40
2023/05/05 06:07:53;;;;;;;;;;;;;;;;;;5153168;27;1863;-39
2023/05/05 06:10:23;;;;;;;;;;;;;;;;;;5134738;27;2058;-39
2023/05/05 06:12:58;;;;;;;;;;;;;;;;;;5134840;27;2197;-44
2023/05/05 06:15:26;;;;;;;;;;;;;;;;;;5134484;27;1899;-45
2023/05/05 06:17:53;;;;;;;;;;;;;;;;;;5134533;27;2007;-43
2023/05/05 06:20:21;;;;;;;;;;;;;;;;;;5134326;27;2267;-45
2023/05/05 06:22:48;;;;;;;;;;;;;;;;;;5134113;27;2033;-50
2023/05/05 06:25:16;;;;;;;;;;;;;;;;;;5153038;27;1992;-45
2023/05/05 06:27:45;;;;;;;;;;;;;;;;;;5134605;27;2099;-45
2023/05/05 06:30:13;;;;;;;;;;;;;;;;;;5153033;27;1955;-46
2023/05/05 06:32:40;;;;;;;;;;;;;;;;;;5152892;27;1930;-40
2023/05/05 06:35:08;;;;;;;;;;;;;;;;;;5152950;27;2051;-46
2023/05/05 06:37:35;;;;;;;;;;;;;;;;;;5152838;27;1896;-46
2023/05/05 06:40:02;;;;;;;;;;;;;;;;;;5152812;27;2014;-40
2023/05/05 06:42:31;;;;;;;;;;;;;;;;;;5152775;27;1990;-40
2023/05/05 06:44:59;;;;;;;;;;;;;;;;;;5133922;27;2218;-40
2023/05/05 06:47:26;;;;;;;;;;;;;;;;;;5152764;27;1983;-44
2023/05/05 06:49:53;;;;;;;;;;;;;;;;;;5152877;27;1799;-40
2023/05/05 06:52:21;;;;;;;;;;;;;;;;;;5152573;27;2040;-40
2023/05/05 06:54:48;;;;;;;;;;;;;;;;;;5168950;27;2091;-39
2023/05/05 06:57:15;;;;;;;;;;;;;;;;;;5173726;27;1753;-39
2023/05/05 06:59:42;;;;;;;;;;;;;;;;;;5173279;27;1987;-40
2023/05/05 07:02:09;;;;;;;;;;;;;;;;;;5173463;27;2072;-39
2023/05/05 07:04:37;;;;;;;;;;;;;;;;;;5173394;27;1909;-40
2023/05/05 07:07:04;;;;;;;;;;;;;;;;;;5173275;27;1971;-40
2023/05/05 07:09:31;;;;;;;;;;;;;;;;;;5173329;27;1974;-40
2023/05/05 07:11:58;;;;;;;;;;;;;;;;;;5173247;27;1992;-45
2023/05/05 07:14:25;;;;;;;;;;;;;;;;;;5173188;27;1862;-42
2023/05/05 07:16:53;;;;;;;;;;;;;;;;;;5173172;27;1785;-39
2023/05/05 07:19:21;;;;;;;;;;;;;;;;;;5173337;27;2070;-40
2023/05/05 07:21:48;;;;;;;;;;;;;;;;;;5173524;27;1881;-39
2023/05/05 07:24:15;;;;;;;;;;;;;;;;;;5173277;27;2137;-40
2023/05/05 07:26:45;;;;;;;;;;;;;;;;;;5172842;27;1891;-39
2023/05/05 07:29:12;;;;;;;;;;;;;;;;;;5173563;27;1948;-39
2023/05/05 07:31:39;;;;;;;;;;;;;;;;;;5173359;27;2049;-40
2023/05/05 07:34:07;;;;;;;;;;;;;;;;;;5155253;27;1909;-39
2023/05/05 07:36:34;;;;;;;;;;;;;;;;;;5177103;27;2164;-38
2023/05/05 07:39:01;;;;;;;;;;;;;;;;;;5176914;27;2006;-40
2023/05/05 07:41:28;;;;;;;;;;;;;;;;;;5176871;27;1763;-39
2023/05/05 07:43:55;;;;;;;;;;;;;;;;;;5176890;27;2042;-45
2023/05/05 07:46:22;;;;;;;;;;;;;;;;;;5177261;27;2027;-39
2023/05/05 07:48:49;;;;;;;;;;;;;;;;;;5177034;27;2359;-40
2023/05/05 07:51:17;;;;;;;;;;;;;;;;;;5176767;27;1887;-40
2023/05/05 07:53:44;;;;;;;;;;;;;;;;;;5169756;27;2280;-40
2023/05/05 07:56:11;;;;;;;;;;;;;;;;;;5155607;27;2096;-43
2023/05/05 07:58:38;;;;;;;;;;;;;;;;;;5155797;27;1763;-41
2023/05/05 08:01:09;;;;;;;;;;;;;;;;;;5155808;27;1989;-53
2023/05/05 08:03:36;;;;;;;;;;;;;;;;;;5155839;27;1906;-48
2023/05/05 08:06:08;;;;;;;;;;;;;;;;;;5155797;27;1922;-39
2023/05/05 08:08:35;;;;;;;;;;;;;;;;;;5155210;27;2031;-50
2023/05/05 08:11:02;;;;;;;;;;;;;;;;;;5155544;27;1843;-49
2023/05/05 08:13:30;;;;;;;;;;;;;;;;;;5155465;27;2205;-42
2023/05/05 08:15:57;;;;;;;;;;;;;;;;;;5155574;27;2143;-45
2023/05/05 08:18:25;;;;;;;;;;;;;;;;;;5155545;27;1759;-39
2023/05/05 08:20:53;;;;;;;;;;;;;;;;;;5155358;27;1997;-43
2023/05/05 08:23:20;;;;;;;;;;;;;;;;;;5155652;27;1910;-39
2023/05/05 08:25:57;;;;;;;;;;;;;;;;;;5155172;27;1988;-39
2023/05/05 08:28:39;;;;;;;;;;;;;;;;;;5155187;27;1846;-40
2023/05/05 08:31:06;;;;;;;;;;;;;;;;;;5155104;27;2031;-39
2023/05/05 08:33:33;;;;;;;;;;;;;;;;;;5155181;27;1894;-39
2023/05/05 08:36:00;;;;;;;;;;;;;;;;;;5155083;27;2000;-40
2023/05/05 08:38:28;;;;;;;;;;;;;;;;;;5155090;27;1876;-39
2023/05/05 08:40:55;;;;;;;;;;;;;;;;;;5154769;27;1883;-39
2023/05/05 08:43:55;;;;;;;;;;;;;;;;;;5155221;27;2152;-45
2023/05/05 08:46:22;;;;;;;;;;;;;;;;;;5153510;27;2074;-40
2023/05/05 08:48:53;;;;;;;;;;;;;;;;;;5155011;27;2046;-53
2023/05/05 08:51:20;;;;;;;;;;;;;;;;;;5154930;27;2027;-48
2023/05/05 08:53:52;;;;;;;;;;;;;;;;;;5162143;27;1948;-41
2023/05/05 08:56:23;;;;;;;;;;;;;;;;;;5175530;27;2090;-40
2023/05/05 08:58:50;;;;;;;;;;;;;;;;;;5162588;27;1882;-41
2023/05/05 09:01:18;;;;;;;;;;;;;;;;;;5154526;27;2207;-43
2023/05/05 09:03:45;;;;;;;;;;;;;;;;;;5154469;27;2056;-41
2023/05/05 09:06:12;;;;;;;;;;;;;;;;;;5142646;27;1976;-41
2023/05/05 09:08:40;;;;;;;;;;;;;;;;;;5133402;27;1943;-40
2023/05/05 09:11:07;;;;;;;;;;;;;;;;;;5133425;27;2061;-49
2023/05/05 09:13:34;;;;;;;;;;;;;;;;;;5133746;27;2098;-40
2023/05/05 09:16:01;;;;;;;;;;;;;;;;;;5137334;27;2223;-40
2023/05/05 09:18:29;;;;;;;;;;;;;;;;;;5154391;27;1868;-40
2023/05/05 09:20:56;;;;;;;;;;;;;;;;;;5154416;27;2049;-47
2023/05/05 09:23:25;;;;;;;;;;;;;;;;;;5154074;27;1966;-46
2023/05/05 09:26:07;;;;;;;;;;;;;;;;;;5151000;27;2002;-51
2023/05/05 09:28:36;;;;;;;;;;;;;;;;;;5153116;27;1974;-39
2023/05/05 09:31:14;;;;;;;;;;;;;;;;;;5152526;27;1933;-44
2023/05/05 09:33:42;;;;;;;;;;;;;;;;;;5150368;27;1874;-39
2023/05/05 09:36:10;;;;;;;;;;;;;;;;;;5152943;27;1996;-47
2023/05/05 09:38:37;;;;;;;;;;;;;;;;;;5153856;27;1782;-39
2023/05/05 09:41:37;;;;;;;;;;;;;;;;;;5153012;27;1713;-39
2023/05/05 09:44:05;;;;;;;;;;;;;;;;;;5153091;27;1849;-39
2023/05/05 09:46:57;;;;;;;;;;;;;;;;;;5153093;27;2013;-42
2023/05/05 09:49:29;;;;;;;;;;;;;;;;;;5150263;27;2007;-51
2023/05/05 09:51:56;;;;;;;;;;;;;;;;;;5150909;27;1987;-46
2023/05/05 09:54:27;;;;;;;;;;;;;;;;;;5153163;27;1820;-39
2023/05/05 09:56:57;;;;;;;;;;;;;;;;;;5152943;27;1960;-51
2023/05/05 09:59:24;;;;;;;;;;;;;;;;;;5153687;27;1974;-40
2023/05/05 10:02:09;;;;;;;;;;;;;;;;;;5152861;27;2010;-40
2023/05/05 10:11:48;;;;;;;;;;;;;;;;;;4194021;23;2681;-58
2023/05/05 10:14:16;;;;;;;;;;;;;;;;;;4933477;29;1096;-51
2023/05/05 10:16:50;;;;;;;;;;;;;;;;;;4934214;29;955;-55
2023/05/05 10:19:21;;;;;;;;;;;;;;;;;;4933855;29;988;-52
2023/05/05 10:21:49;;;;;;;;;;;;;;;;;;4932422;29;1073;-57
2023/05/05 10:24:33;;;;;;;;;;;;;;;;;;4933606;29;1049;-57
2023/05/05 10:27:03;;;;;;;;;;;;;;;;;;4934070;29;1087;-48
2023/05/05 10:29:54;;;;;;;;;;;;;;;;;;4933665;29;1005;-50
2023/05/05 10:32:27;;;;;;;;;;;;;;;;;;4935176;29;1341;-58
2023/05/05 10:35:16;;;;;;;;;;;;;;;;;;4932815;29;1016;-49
2023/05/05 10:37:43;;;;;;;;;;;;;;;;;;4933302;29;1097;-57
2023/05/05 10:40:11;;;;;;;;;;;;;;;;;;4933687;29;1426;-53
2023/05/05 10:42:39;;;;;;;;;;;;;;;;;;4933102;29;1053;-50
2023/05/05 10:45:07;;;;;;;;;;;;;;;;;;4933240;29;1906;-54
2023/05/05 10:47:34;;;;;;;;;;;;;;;;;;4933376;29;979;-52
2023/05/05 10:50:11;;;;;;;;;;;;;;;;;;4933468;29;1384;-55
2023/05/05 10:52:41;;;;;;;;;;;;;;;;;;4933421;29;1107;-50
2023/05/05 10:55:08;;;;;;;;;;;;;;;;;;4932899;29;1337;-53
2023/05/05 10:57:38;;;;;;;;;;;;;;;;;;4930962;29;1387;-54
2023/05/05 11:00:07;;;;;;;;;;;;;;;;;;4933549;29;988;-52
2023/05/05 11:02:35;;;;;;;;;;;;;;;;;;4933817;29;1074;-54
2023/05/05 11:05:02;;;;;;;;;;;;;;;;;;4932099;29;1982;-57
2023/05/05 11:07:30;;;;;;;;;;;;;;;;;;4932688;29;1216;-44
2023/05/05 11:09:57;;;;;;;;;;;;;;;;;;4934796;29;958;-56
2023/05/05 11:12:25;;;;;;;;;;;;;;;;;;4937367;29;1219;-47
2023/05/05 11:15:10;;;;;;;;;;;;;;;;;;4937132;29;1415;-54
2023/05/05 11:17:47;;;;;;;;;;;;;;;;;;4937460;29;1079;-51
2023/05/05 11:20:15;;;;;;;;;;;;;;;;;;4937025;29;938;-49
2023/05/05 11:23:00;;;;;;;;;;;;;;;;;;4937451;29;1025;-56
2023/05/05 11:25:40;;;;;;;;;;;;;;;;;;4937147;29;1915;-55
2023/05/05 11:28:17;;;;;;;;;;;;;;;;;;4937107;29;909;-54
2023/05/05 11:30:54;;;;;;;;;;;;;;;;;;4936821;29;958;-54
2023/05/05 11:33:31;;;;;;;;;;;;;;;;;;4937277;29;1408;-56
2023/05/05 11:35:59;;;;;;;;;;;;;;;;;;4936984;29;1153;-52
2023/05/05 11:38:35;;;;;;;;;;;;;;;;;;4936947;29;860;-51
2023/05/05 11:41:13;;;;;;;;;;;;;;;;;;4936774;29;1049;-55
2023/05/05 11:43:41;;;;;;;;;;;;;;;;;;4936972;29;971;-50
2023/05/05 11:46:09;;;;;;;;;;;;;;;;;;4936765;29;1916;-56
2023/05/05 11:48:47;;;;;;;;;;;;;;;;;;4936900;29;947;-56
2023/05/05 11:51:15;;;;;;;;;;;;;;;;;;4936714;29;1017;-40
2023/05/05 11:53:42;;;;;;;;;;;;;;;;;;4936185;29;1309;-52
2023/05/05 11:56:11;;;;;;;;;;;;;;;;;;4936884;29;1088;-54
2023/05/05 11:58:38;;;;;;;;;;;;;;;;;;4936841;29;1070;-56
2023/05/05 12:01:06;;;;;;;;;;;;;;;;;;4935292;29;1041;-54
2023/05/05 12:03:36;;;;;;;;;;;;;;;;;;4936610;29;1099;-53
2023/05/05 12:06:04;;;;;;;;;;;;;;;;;;4935497;29;1907;-50
2023/05/05 12:08:38;;;;;;;;;;;;;;;;;;4935526;29;976;-56
2023/05/05 12:11:09;;;;;;;;;;;;;;;;;;4935236;29;1282;-54
2023/05/05 12:13:36;;;;;;;;;;;;;;;;;;4936064;29;1107;-40
2023/05/05 12:16:07;;;;;;;;;;;;;;;;;;4935876;29;1075;-40
2023/05/05 12:18:35;;;;;;;;;;;;;;;;;;4935755;29;1185;-40
2023/05/05 12:21:12;;;;;;;;;;;;;;;;;;4934893;29;1377;-39
2023/05/05 12:23:39;;;;;;;;;;;;;;;;;;4934793;29;975;-49
2023/05/05 12:26:06;;;;;;;;;;;;;;;;;;4934789;29;1903;-40
2023/05/05 12:28:45;;;;;;;;;;;;;;;;;;4934653;29;983;-57
2023/05/05 12:31:12;;;;;;;;;;;;;;;;;;4934474;29;1466;-55
2023/05/05 12:33:40;;;;;;;;;;;;;;;;;;4934832;29;894;-52
2023/05/05 12:36:08;;;;;;;;;;;;;;;;;;4934715;29;876;-48
2023/05/05 12:38:35;;;;;;;;;;;;;;;;;;4934712;29;1320;-56
2023/05/05 12:41:02;;;;;;;;;;;;;;;;;;4935814;29;978;-57
2023/05/05 12:43:30;;;;;;;;;;;;;;;;;;4935295;29;1039;-50
2023/05/05 12:46:02;;;;;;;;;;;;;;;;;;4935651;29;1903;-40
2023/05/05 12:48:30;;;;;;;;;;;;;;;;;;4935908;29;916;-39
2023/05/05 12:51:12;;;;;;;;;;;;;;;;;;4935764;29;1125;-40
2023/05/05 12:53:40;;;;;;;;;;;;;;;;;;4935444;29;1341;-50
2023/05/05 12:56:26;;;;;;;;;;;;;;;;;;4935409;29;999;-56
2023/05/05 12:58:54;;;;;;;;;;;;;;;;;;4935477;29;1405;-52
2023/05/05 13:01:21;;;;;;;;;;;;;;;;;;4935601;29;1107;-49
2023/05/05 13:04:07;;;;;;;;;;;;;;;;;;4935053;29;1064;-56
2023/05/05 13:06:35;;;;;;;;;;;;;;;;;;4935099;29;1973;-51
2023/05/05 13:09:03;;;;;;;;;;;;;;;;;;4935019;29;1401;-42
2023/05/05 13:11:35;;;;;;;;;;;;;;;;;;4935248;29;1502;-40
2023/05/05 13:14:02;;;;;;;;;;;;;;;;;;4934959;29;980;-40
2023/05/05 13:16:30;;;;;;;;;;;;;;;;;;4935256;29;1091;-49
2023/05/05 13:18:58;;;;;;;;;;;;;;;;;;4935411;29;1275;-52
2023/05/05 13:21:25;;;;;;;;;;;;;;;;;;4935063;29;1358;-56
2023/05/05 13:23:52;;;;;;;;;;;;;;;;;;4934698;29;1241;-48
2023/05/05 13:26:20;;;;;;;;;;;;;;;;;;4934951;29;1908;-39
2023/05/05 13:28:47;;;;;;;;;;;;;;;;;;4935070;29;1086;-52
2023/05/05 13:31:14;;;;;;;;;;;;;;;;;;4934808;29;998;-51
2023/05/05 13:33:42;;;;;;;;;;;;;;;;;;4934100;29;1011;-50
2023/05/05 13:36:09;;;;;;;;;;;;;;;;;;4934951;29;972;-55
2023/05/05 13:38:36;;;;;;;;;;;;;;;;;;4934692;29;1049;-54
2023/05/05 13:41:03;;;;;;;;;;;;;;;;;;4934742;29;1154;-56
2023/05/05 13:43:31;;;;;;;;;;;;;;;;;;4934895;29;952;-44
2023/05/05 13:45:58;;;;;;;;;;;;;;;;;;4934169;29;1920;-38
2023/05/05 13:48:38;;;;;;;;;;;;;;;;;;4934195;29;1078;-39
2023/05/05 13:51:07;;;;;;;;;;;;;;;;;;4934245;29;1148;-50
2023/05/05 13:53:34;;;;;;;;;;;;;;;;;;4934619;29;1274;-52
2023/05/05 13:56:01;;;;;;;;;;;;;;;;;;4934875;29;1058;-52
2023/05/05 13:58:29;;;;;;;;;;;;;;;;;;4934066;29;1099;-54
2023/05/05 14:00:56;;;;;;;;;;;;;;;;;;4934491;29;1079;-56
2023/05/05 14:03:23;;;;;;;;;;;;;;;;;;4934472;29;956;-55
2023/05/05 14:05:50;;;;;;;;;;;;;;;;;;4934160;29;1906;-56
2023/05/05 14:08:18;;;;;;;;;;;;;;;;;;4934377;29;1069;-49
2023/05/05 14:10:45;;;;;;;;;;;;;;;;;;4933990;29;1070;-48
2023/05/05 14:13:14;;;;;;;;;;;;;;;;;;4934097;29;1264;-39
2023/05/05 14:15:41;;;;;;;;;;;;;;;;;;4933990;29;967;-54
2023/05/05 14:18:09;;;;;;;;;;;;;;;;;;4933666;29;1166;-52
2023/05/05 14:20:36;;;;;;;;;;;;;;;;;;4934410;29;1210;-39
2023/05/05 14:23:03;;;;;;;;;;;;;;;;;;4934148;29;1585;-39
2023/05/05 14:25:31;;;;;;;;;;;;;;;;;;4933722;29;1072;-50
2023/05/05 14:27:59;;;;;;;;;;;;;;;;;;4933965;29;1912;-39
2023/05/05 14:30:26;;;;;;;;;;;;;;;;;;4933673;29;1182;-47
2023/05/05 14:32:54;;;;;;;;;;;;;;;;;;4934019;29;1110;-51
2023/05/05 14:35:21;;;;;;;;;;;;;;;;;;4923991;29;1083;-43
2023/05/05 14:37:48;;;;;;;;;;;;;;;;;;4914846;29;1033;-54
2023/05/05 14:40:15;;;;;;;;;;;;;;;;;;4913755;29;1467;-56
2023/05/05 14:42:42;;;;;;;;;;;;;;;;;;4914734;29;1117;-47
2023/05/05 14:45:10;;;;;;;;;;;;;;;;;;4914736;29;1303;-53
2023/05/05 14:47:37;;;;;;;;;;;;;;;;;;4914910;29;1908;-52
2023/05/05 14:50:07;;;;;;;;;;;;;;;;;;4915069;29;936;-56
2023/05/05 14:52:35;;;;;;;;;;;;;;;;;;4915118;29;1043;-55
2023/05/05 14:55:03;;;;;;;;;;;;;;;;;;4931420;29;1435;-44
2023/05/05 14:57:30;;;;;;;;;;;;;;;;;;4932564;29;1113;-57
2023/05/05 14:59:57;;;;;;;;;;;;;;;;;;4933633;29;1185;-56
2023/05/05 15:02:24;;;;;;;;;;;;;;;;;;4933706;29;1149;-51
2023/05/05 15:04:52;;;;;;;;;;;;;;;;;;4933188;29;1094;-50
2023/05/05 15:07:20;;;;;;;;;;;;;;;;;;4933390;29;1978;-57
2023/05/05 15:09:48;;;;;;;;;;;;;;;;;;4932057;29;977;-48
2023/05/05 15:12:15;;;;;;;;;;;;;;;;;;4933449;29;1214;-56
2023/05/05 15:14:42;;;;;;;;;;;;;;;;;;4933810;29;979;-56
2023/05/05 15:17:09;;;;;;;;;;;;;;;;;;4933490;29;935;-55
2023/05/05 15:19:36;;;;;;;;;;;;;;;;;;4933789;29;935;-56
2023/05/05 15:22:03;;;;;;;;;;;;;;;;;;4933449;29;1193;-53
2023/05/05 15:24:30;;;;;;;;;;;;;;;;;;4933310;29;1135;-57
2023/05/05 15:26:58;;;;;;;;;;;;;;;;;;4933277;29;1910;-51
2023/05/05 15:29:25;;;;;;;;;;;;;;;;;;4933248;29;1186;-55
2023/05/05 15:31:52;;;;;;;;;;;;;;;;;;4933437;29;1210;-51
2023/05/05 15:34:19;;;;;;;;;;;;;;;;;;4933195;29;1126;-55
2023/05/05 15:36:47;;;;;;;;;;;;;;;;;;4933430;29;1108;-56
2023/05/05 15:39:14;;;;;;;;;;;;;;;;;;4933251;29;1123;-56
2023/05/05 15:41:41;;;;;;;;;;;;;;;;;;4933220;29;1182;-56
2023/05/05 15:44:10;;;;;;;;;;;;;;;;;;4933313;29;1099;-54
2023/05/05 15:46:38;;;;;;;;;;;;;;;;;;4933258;29;1919;-56
2023/05/05 15:49:05;;;;;;;;;;;;;;;;;;4933050;29;1120;-56
2023/05/05 15:51:33;;;;;;;;;;;;;;;;;;4932981;29;1018;-53
2023/05/05 15:54:00;;;;;;;;;;;;;;;;;;4933179;29;1341;-54
2023/05/05 15:56:28;;;;;;;;;;;;;;;;;;4935558;29;1367;-56
2023/05/05 15:58:55;;;;;;;;;;;;;;;;;;4936438;29;1175;-53
2023/05/05 16:01:22;;;;;;;;;;;;;;;;;;4936698;29;1035;-56
2023/05/05 16:03:49;;;;;;;;;;;;;;;;;;4936346;29;1069;-39
2023/05/05 16:06:17;;;;;;;;;;;;;;;;;;4936328;29;1911;-55
2023/05/05 16:08:46;;;;;;;;;;;;;;;;;;4936879;29;1030;-40
2023/05/05 16:11:13;;;;;;;;;;;;;;;;;;4936339;29;1439;-40
2023/05/05 16:13:41;;;;;;;;;;;;;;;;;;4936952;29;1173;-53
2023/05/05 16:16:08;;;;;;;;;;;;;;;;;;4936569;29;1221;-50
2023/05/05 16:18:35;;;;;;;;;;;;;;;;;;4936251;29;987;-57
2023/05/05 16:21:02;;;;;;;;;;;;;;;;;;4936054;29;1085;-58
2023/05/05 16:23:30;;;;;;;;;;;;;;;;;;4936047;29;1059;-39
2023/05/05 16:25:57;;;;;;;;;;;;;;;;;;4935983;29;1178;-39
2023/05/05 16:28:24;;;;;;;;;;;;;;;;;;4936108;29;1910;-40
2023/05/05 16:30:51;;;;;;;;;;;;;;;;;;4936197;29;1075;-40
2023/05/05 16:33:18;;;;;;;;;;;;;;;;;;4935991;29;1234;-55
2023/05/05 16:35:45;;;;;;;;;;;;;;;;;;4936054;29;912;-40
2023/05/05 16:38:13;;;;;;;;;;;;;;;;;;4936021;29;1142;-55
2023/05/05 16:40:40;;;;;;;;;;;;;;;;;;4936281;29;1227;-51
2023/05/05 16:43:07;;;;;;;;;;;;;;;;;;4935994;29;940;-57
2023/05/05 16:45:34;;;;;;;;;;;;;;;;;;4935670;29;1018;-55
2023/05/05 16:48:02;;;;;;;;;;;;;;;;;;4935690;29;1907;-53
2023/05/05 16:50:29;;;;;;;;;;;;;;;;;;4935815;29;983;-50
2023/05/05 16:52:56;;;;;;;;;;;;;;;;;;4935613;29;1278;-52
2023/05/05 16:55:24;;;;;;;;;;;;;;;;;;4935829;29;916;-49
2023/05/05 16:57:51;;;;;;;;;;;;;;;;;;4935614;29;1155;-54
2023/05/05 17:00:19;;;;;;;;;;;;;;;;;;4935242;29;1172;-51
2023/05/05 17:02:46;;;;;;;;;;;;;;;;;;4935520;29;1081;-55
2023/05/05 17:05:13;;;;;;;;;;;;;;;;;;4935604;29;1202;-41
2023/05/05 17:07:40;;;;;;;;;;;;;;;;;;4934486;28;1911;-53
2023/05/05 17:10:08;;;;;;;;;;;;;;;;;;4935173;29;1105;-40
2023/05/05 17:12:35;;;;;;;;;;;;;;;;;;4935090;29;1327;-44
2023/05/05 17:15:03;;;;;;;;;;;;;;;;;;4935508;29;1006;-44
2023/05/05 17:17:30;;;;;;;;;;;;;;;;;;4935110;29;939;-53
2023/05/05 17:19:57;;;;;;;;;;;;;;;;;;4935216;29;1018;-56
2023/05/05 17:22:24;;;;;;;;;;;;;;;;;;4935291;29;1089;-55
2023/05/05 17:24:52;;;;;;;;;;;;;;;;;;4935372;29;1007;-55
2023/05/05 17:27:19;;;;;;;;;;;;;;;;;;4934693;29;1931;-44